Time;durP1;ratioP1;P1;durP2;ratioP2;P2;SDS_P1;SDS_P2;PMS_P1;PMS_P2;Temp;Humidity;BMP_temperature;BMP_pressure;BME280_temperature;BME280_humidity;BME280_pressure;Samples;Min_cycle;Max_cycle;Signal;HPM_P1;HPM_P2
2023/07/11 00:02:15;;;;;;;0.10;0.10;;;17.80;99.90;;;;;;5013076;28;20053;-58
2023/07/11 00:04:41;;;;;;;0.10;0.10;;;17.70;99.90;;;;;;5013096;28;20100;-58
2023/07/11 00:07:07;;;;;;;0.20;0.20;;;17.60;99.90;;;;;;5013559;28;20058;-58
2023/07/11 00:09:32;;;;;;;0.40;0.40;;;17.60;99.90;;;;;;5013606;28;20038;-59
2023/07/11 00:11:58;;;;;;;0.10;0.10;;;17.60;99.90;;;;;;5013580;28;20532;-58
2023/07/11 00:14:24;;;;;;;0.22;0.22;;;17.70;99.90;;;;;;5013487;28;20034;-58
2023/07/11 00:16:54;;;;;;;0.20;0.20;;;17.60;99.90;;;;;;5013172;28;20050;-58
2023/07/11 00:19:20;;;;;;;0.10;0.10;;;17.40;99.90;;;;;;5013246;28;20064;-58
2023/07/11 00:21:46;;;;;;;1.60;0.32;;;17.60;99.90;;;;;;5012961;28;20050;-58
2023/07/11 00:24:13;;;;;;;0.30;0.30;;;17.20;99.90;;;;;;5012959;28;20461;-58
2023/07/11 00:26:39;;;;;;;0.17;0.17;;;17.30;99.90;;;;;;5013012;28;20060;-58
2023/07/11 00:29:20;;;;;;;0.60;0.60;;;17.10;99.90;;;;;;5013094;28;20049;-58
2023/07/11 00:31:46;;;;;;;0.25;0.25;;;17.40;99.90;;;;;;5012944;28;20485;-58
2023/07/11 00:34:12;;;;;;;0.20;0.20;;;17.20;99.90;;;;;;5012687;28;20046;-58
2023/07/11 00:36:37;;;;;;;0.10;0.10;;;17.20;99.90;;;;;;5012954;28;20045;-58
2023/07/11 00:39:04;;;;;;;0.10;0.10;;;17.00;99.90;;;;;;5012530;28;20096;-58
2023/07/11 00:41:31;;;;;;;0.25;0.25;;;17.10;99.90;;;;;;5012814;28;20058;-58
2023/07/11 00:43:56;;;;;;;0.20;0.20;;;17.20;99.90;;;;;;5012551;28;20484;-58
2023/07/11 00:46:22;;;;;;;0.10;0.10;;;16.90;99.90;;;;;;5012593;28;20081;-58
2023/07/11 00:48:54;;;;;;;0.65;0.30;;;17.20;99.90;;;;;;5012413;28;20038;-57
2023/07/11 00:51:33;;;;;;;0.10;0.10;;;17.00;99.90;;;;;;5012758;28;20053;-58
2023/07/11 00:54:02;;;;;;;0.20;0.20;;;17.00;99.90;;;;;;5012548;28;20124;-58
2023/07/11 00:56:31;;;;;;;0.10;0.10;;;16.80;99.90;;;;;;5012501;28;20466;-58
2023/07/11 00:58:58;;;;;;;0.20;0.20;;;17.10;99.90;;;;;;5012434;28;20409;-58
2023/07/11 01:01:25;;;;;;;0.10;0.10;;;17.00;99.90;;;;;;5012263;28;20049;-58
2023/07/11 01:03:52;;;;;;;0.10;0.10;;;16.90;99.90;;;;;;5012432;28;20124;-58
2023/07/11 01:06:21;;;;;;;0.15;0.15;;;16.80;99.90;;;;;;5012262;28;20050;-58
2023/07/11 01:08:49;;;;;;;0.10;0.10;;;17.00;99.90;;;;;;5012196;28;20149;-58
2023/07/11 01:11:15;;;;;;;0.30;0.30;;;16.80;99.90;;;;;;5012398;28;20054;-58
2023/07/11 01:13:42;;;;;;;0.13;0.13;;;17.00;99.90;;;;;;5012210;28;20049;-58
2023/07/11 01:16:08;;;;;;;1.35;0.40;;;17.00;99.90;;;;;;5012272;28;20053;-58
2023/07/11 01:18:34;;;;;;;0.10;0.10;;;17.30;99.90;;;;;;5012399;28;20046;-58
2023/07/11 01:20:59;;;;;;;0.10;0.10;;;16.70;99.90;;;;;;5012292;28;20093;-58
2023/07/11 01:23:26;;;;;;;0.17;0.17;;;16.70;99.90;;;;;;5012071;28;20119;-58
2023/07/11 01:26:02;;;;;;;0.10;0.10;;;17.00;99.90;;;;;;5011876;28;20061;-58
2023/07/11 01:28:28;;;;;;;0.10;0.10;;;17.40;99.90;;;;;;5011184;28;20409;-58
2023/07/11 01:30:54;;;;;;;0.10;0.10;;;17.20;99.90;;;;;;5011650;28;20054;-58
2023/07/11 01:33:19;;;;;;;0.10;0.10;;;17.20;99.90;;;;;;5011785;28;20099;-58
2023/07/11 01:35:45;;;;;;;0.10;0.10;;;17.20;99.90;;;;;;5011727;28;20054;-58
2023/07/11 01:38:11;;;;;;;0.10;0.10;;;17.10;99.90;;;;;;5011416;28;20392;-58
2023/07/11 01:40:37;;;;;;;0.10;0.10;;;17.40;99.90;;;;;;5011548;28;20060;-58
2023/07/11 01:43:02;;;;;;;0.15;0.15;;;17.00;99.90;;;;;;5011379;28;20052;-58
2023/07/11 01:45:28;;;;;;;0.80;0.40;;;16.80;99.90;;;;;;5010629;28;20543;-58
2023/07/11 01:47:54;;;;;;;0.10;0.10;;;16.70;99.90;;;;;;5011730;28;20099;-58
2023/07/11 01:50:19;;;;;;;0.30;0.30;;;17.10;99.90;;;;;;5010173;28;20049;-58
2023/07/11 01:52:45;;;;;;;0.28;0.28;;;17.00;99.90;;;;;;5011530;28;20053;-58
2023/07/11 01:55:11;;;;;;;0.20;0.20;;;16.60;99.90;;;;;;5011440;28;20071;-58
2023/07/11 01:57:36;;;;;;;0.20;0.20;;;17.30;99.90;;;;;;5011331;28;20481;-58
2023/07/11 02:00:03;;;;;;;0.20;0.20;;;16.80;99.90;;;;;;5011498;28;20383;-59
2023/07/11 02:02:28;;;;;;;0.20;0.20;;;16.80;99.90;;;;;;5010068;28;20057;-58
2023/07/11 02:04:54;;;;;;;0.13;0.13;;;17.20;99.90;;;;;;5011389;28;20207;-58
2023/07/11 02:07:20;;;;;;;0.10;0.10;;;16.70;99.90;;;;;;5011191;28;20084;-58
2023/07/11 02:09:46;;;;;;;0.10;0.10;;;17.10;99.90;;;;;;5011251;28;20153;-58
2023/07/11 02:12:13;;;;;;;0.10;0.10;;;16.90;99.90;;;;;;5011120;28;20058;-59
2023/07/11 02:14:40;;;;;;;0.20;0.20;;;17.00;99.90;;;;;;5011416;28;20054;-58
2023/07/11 02:17:08;;;;;;;0.20;0.15;;;16.80;99.90;;;;;;5011236;28;20062;-58
2023/07/11 02:19:34;;;;;;;6.20;0.55;;;16.40;99.90;;;;;;5011220;28;20496;-58
2023/07/11 02:22:00;;;;;;;0.38;0.38;;;16.70;99.90;;;;;;5011108;28;20141;-58
2023/07/11 02:24:26;;;;;;;0.10;0.10;;;17.10;99.90;;;;;;5011066;28;20136;-58
2023/07/11 02:26:51;;;;;;;;;;;16.70;99.90;;;;;;5010095;28;20469;-58
2023/07/11 02:29:17;;;;;;;0.10;0.10;;;16.70;99.90;;;;;;5011236;28;20012;-58
2023/07/11 02:31:43;;;;;;;0.17;0.17;;;17.10;99.90;;;;;;5011210;28;20088;-58
2023/07/11 02:34:09;;;;;;;0.22;0.22;;;16.80;99.90;;;;;;5011208;28;20494;-58
2023/07/11 02:36:35;;;;;;;0.10;0.10;;;16.80;99.90;;;;;;5011050;28;20054;-58
2023/07/11 02:39:01;;;;;;;;;;;16.70;99.90;;;;;;5011404;28;20068;-58
2023/07/11 02:41:26;;;;;;;0.10;0.10;;;17.00;99.90;;;;;;5014631;28;19929;-59
2023/07/11 02:43:52;;;;;;;0.63;0.20;;;16.70;99.90;;;;;;5015011;28;20042;-58
2023/07/11 02:46:19;;;;;;;0.43;0.43;;;16.60;99.90;;;;;;5014870;28;20432;-58
2023/07/11 02:48:45;;;;;;;0.22;0.22;;;17.10;99.90;;;;;;5014811;28;20046;-58
2023/07/11 02:51:11;;;;;;;0.50;0.32;;;17.10;99.90;;;;;;5014875;28;20069;-58
2023/07/11 02:53:37;;;;;;;0.20;0.20;;;16.90;99.90;;;;;;5014902;28;20050;-58
2023/07/11 02:56:02;;;;;;;0.10;0.10;;;17.00;99.90;;;;;;5014501;28;20074;-58
2023/07/11 02:58:28;;;;;;;0.15;0.15;;;16.60;99.90;;;;;;5014728;28;20397;-58
2023/07/11 03:00:56;;;;;;;0.38;0.38;;;17.00;99.90;;;;;;5014699;28;20050;-58
2023/07/11 03:03:21;;;;;;;0.13;0.13;;;16.50;99.90;;;;;;5014372;28;20513;-58
2023/07/11 03:05:49;;;;;;;0.65;0.65;;;16.70;99.90;;;;;;5014581;28;20049;-58
2023/07/11 03:08:15;;;;;;;0.17;0.17;;;16.90;99.90;;;;;;5014451;28;20056;-58
2023/07/11 03:10:41;;;;;;;0.30;0.30;;;16.90;99.90;;;;;;5014290;28;20048;-58
2023/07/11 03:13:07;;;;;;;;;;;17.10;99.90;;;;;;5015052;28;20046;-58
2023/07/11 03:15:34;;;;;;;0.30;0.30;;;16.00;99.90;;;;;;5014774;28;19929;-58
2023/07/11 03:17:59;;;;;;;0.10;0.10;;;17.00;99.90;;;;;;5014286;28;20490;-58
2023/07/11 03:20:25;;;;;;;0.40;0.40;;;17.00;99.90;;;;;;5014234;28;20054;-58
2023/07/11 03:22:51;;;;;;;0.10;0.10;;;16.70;99.90;;;;;;5012754;28;20482;-58
2023/07/11 03:25:17;;;;;;;;;;;17.20;99.90;;;;;;5014362;28;20064;-58
2023/07/11 03:27:42;;;;;;;0.65;0.65;;;17.10;99.90;;;;;;5014141;28;20262;-58
2023/07/11 03:30:08;;;;;;;;;;;17.00;99.90;;;;;;5014512;28;20452;-58
2023/07/11 03:32:34;;;;;;;0.20;0.20;;;17.00;99.90;;;;;;5014306;28;19925;-58
2023/07/11 03:34:59;;;;;;;0.10;0.10;;;16.90;99.90;;;;;;5013943;28;20564;-58
2023/07/11 03:37:25;;;;;;;0.20;0.20;;;16.70;99.90;;;;;;5013804;28;20136;-58
2023/07/11 03:39:51;;;;;;;0.30;0.30;;;17.00;99.90;;;;;;5013399;28;20057;-58
2023/07/11 03:42:16;;;;;;;1.65;0.57;;;16.90;99.90;;;;;;5013615;28;20061;-58
2023/07/11 03:44:42;;;;;;;;;;;16.70;99.90;;;;;;5014429;28;20045;-58
2023/07/11 03:47:08;;;;;;;0.20;0.20;;;16.90;99.90;;;;;;5013748;28;20012;-59
2023/07/11 03:49:34;;;;;;;1.10;0.70;;;17.00;99.90;;;;;;5013760;28;20136;-58
2023/07/11 03:52:00;;;;;;;0.22;0.22;;;16.60;99.90;;;;;;5013061;28;20111;-58
2023/07/11 03:54:26;;;;;;;0.10;0.10;;;16.90;99.90;;;;;;5013513;28;20050;-58
2023/07/11 03:56:52;;;;;;;;;;;16.80;99.90;;;;;;5014014;28;20176;-58
2023/07/11 03:59:18;;;;;;;0.28;0.28;;;17.00;99.90;;;;;;5013508;28;19932;-58
2023/07/11 04:01:43;;;;;;;0.10;0.10;;;16.90;99.90;;;;;;5013364;28;20504;-58
2023/07/11 04:04:09;;;;;;;0.45;0.45;;;16.60;99.90;;;;;;5013265;28;20050;-58
2023/07/11 04:06:35;;;;;;;0.10;0.10;;;16.80;99.90;;;;;;5013360;28;20397;-58
2023/07/11 04:09:01;;;;;;;0.35;0.35;;;16.90;99.90;;;;;;5013211;28;20052;-58
2023/07/11 04:11:26;;;;;;;0.35;0.35;;;16.90;99.90;;;;;;5013417;28;20152;-58
2023/07/11 04:13:52;;;;;;;0.10;0.10;;;16.70;99.90;;;;;;5013309;28;20482;-58
2023/07/11 04:16:17;;;;;;;;;;;16.60;99.90;;;;;;5013616;28;20486;-58
2023/07/11 04:18:43;;;;;;;0.40;0.40;;;17.00;99.90;;;;;;5013172;28;19921;-58
2023/07/11 04:21:09;;;;;;;;;;;16.90;99.90;;;;;;5013403;28;20046;-58
2023/07/11 04:23:34;;;;;;;0.30;0.30;;;16.90;99.90;;;;;;5012827;28;19932;-58
2023/07/11 04:26:00;;;;;;;;;;;16.80;99.90;;;;;;5013573;28;20050;-58
2023/07/11 04:28:26;;;;;;;0.22;0.22;;;17.00;99.90;;;;;;5013057;28;19925;-58
2023/07/11 04:30:51;;;;;;;0.45;0.45;;;16.50;99.90;;;;;;5012735;28;20050;-58
2023/07/11 04:33:17;;;;;;;0.15;0.15;;;17.30;99.90;;;;;;5012883;28;20046;-58
2023/07/11 04:35:43;;;;;;;;;;;17.10;99.90;;;;;;5013567;28;20489;-59
2023/07/11 04:38:09;;;;;;;0.80;0.73;;;16.90;99.90;;;;;;5012828;28;19999;-58
2023/07/11 04:40:35;;;;;;;0.25;0.25;;;17.00;99.90;;;;;;5011584;28;20474;-58
2023/07/11 04:43:01;;;;;;;;;;;17.20;99.90;;;;;;5013133;28;20132;-58
2023/07/11 04:45:27;;;;;;;0.10;0.10;;;17.30;99.90;;;;;;5011410;28;19925;-58
2023/07/11 04:47:53;;;;;;;0.20;0.20;;;17.00;99.90;;;;;;4995215;28;20085;-58
2023/07/11 04:50:19;;;;;;;0.68;0.68;;;17.30;99.90;;;;;;5012579;28;20383;-58
2023/07/11 04:52:45;;;;;;;0.25;0.25;;;17.10;99.90;;;;;;5012403;28;20087;-58
2023/07/11 04:55:11;;;;;;;0.20;0.20;;;17.40;99.90;;;;;;5012512;28;20057;-58
2023/07/11 04:57:37;;;;;;;0.30;0.30;;;17.30;99.90;;;;;;5012535;28;20175;-58
2023/07/11 05:00:05;;;;;;;0.10;0.10;;;17.20;99.90;;;;;;5012426;28;20042;-58
2023/07/11 05:02:31;;;;;;;0.43;0.43;;;17.30;99.90;;;;;;5011974;28;20038;-58
2023/07/11 05:04:57;;;;;;;0.10;0.10;;;17.20;99.90;;;;;;5011666;28;20053;-58
2023/07/11 05:07:23;;;;;;;0.80;0.40;;;17.40;99.90;;;;;;5012202;28;20053;-58
2023/07/11 05:09:48;;;;;;;0.10;0.10;;;17.00;99.90;;;;;;5012691;28;20046;-59
2023/07/11 05:12:15;;;;;;;0.40;0.40;;;17.60;99.90;;;;;;5012325;28;20394;-58
2023/07/11 05:14:41;;;;;;;0.50;0.50;;;17.20;99.90;;;;;;5011911;28;20159;-58
2023/07/11 05:17:06;;;;;;;0.13;0.13;;;17.60;99.90;;;;;;5012099;28;20497;-58
2023/07/11 05:19:32;;;;;;;;;;;17.60;99.90;;;;;;5012410;28;20050;-58
2023/07/11 05:21:58;;;;;;;0.52;0.40;;;17.60;99.90;;;;;;5011859;28;19929;-58
2023/07/11 05:24:24;;;;;;;0.40;0.40;;;17.90;99.90;;;;;;5012095;28;20595;-58
2023/07/11 05:26:49;;;;;;;;;;;17.80;99.90;;;;;;5012415;28;20045;-58
2023/07/11 05:29:15;;;;;;;0.30;0.30;;;18.00;99.90;;;;;;5011560;28;19932;-58
2023/07/11 05:31:41;;;;;;;0.20;0.20;;;18.10;99.90;;;;;;5011814;28;20061;-58
2023/07/11 05:34:09;;;;;;;2.05;0.60;;;18.20;99.90;;;;;;5011604;28;20054;-59
2023/07/11 05:36:36;;;;;;;0.68;0.43;;;18.10;99.90;;;;;;5011441;28;20050;-58
2023/07/11 05:39:12;;;;;;;0.30;0.30;;;18.30;99.90;;;;;;5011602;28;20057;-58
2023/07/11 05:41:41;;;;;;;;;;;18.10;99.90;;;;;;5012179;28;20065;-59
2023/07/11 05:44:08;;;;;;;0.68;0.57;;;20.60;99.90;;;;;;4986857;28;19925;-58
2023/07/11 05:46:34;;;;;;;0.20;0.20;;;18.40;99.90;;;;;;4987887;28;20054;-59
2023/07/11 05:48:59;;;;;;;0.30;0.30;;;18.50;99.90;;;;;;4990882;28;20057;-58
2023/07/11 05:51:25;;;;;;;0.43;0.43;;;18.50;99.90;;;;;;4990658;28;20831;-59
2023/07/11 05:53:51;;;;;;;0.57;0.57;;;18.40;99.90;;;;;;4991293;28;20050;-58
2023/07/11 05:56:18;;;;;;;0.47;0.28;;;18.60;99.90;;;;;;4991029;28;20395;-58
2023/07/11 05:58:46;;;;;;;0.32;0.32;;;18.50;99.90;;;;;;4990088;28;20050;-60
2023/07/11 06:01:13;;;;;;;0.60;0.60;;;18.50;99.90;;;;;;4992644;28;20050;-65
2023/07/11 06:03:45;;;;;;;0.65;0.38;;;18.80;99.90;;;;;;4993541;28;20129;-69
2023/07/11 06:06:13;;;;;;;0.28;0.28;;;18.90;99.90;;;;;;4993983;28;20046;-64
2023/07/11 06:08:39;;;;;;;0.75;0.25;;;18.80;99.90;;;;;;4994077;28;20108;-65
2023/07/11 06:11:06;;;;;;;0.22;0.22;;;18.70;99.90;;;;;;4993509;28;20483;-65
2023/07/11 06:13:34;;;;;;;0.17;0.17;;;19.00;99.90;;;;;;4993825;28;20476;-66
2023/07/11 06:16:11;;;;;;;2.65;0.43;;;19.20;99.90;;;;;;4993373;28;20050;-64
2023/07/11 06:18:37;;;;;;;0.45;0.45;;;18.60;99.90;;;;;;4993561;28;20108;-64
2023/07/11 06:21:05;;;;;;;0.22;0.22;;;19.20;99.90;;;;;;4993318;28;20042;-62
2023/07/11 06:23:31;;;;;;;0.50;0.50;;;19.20;99.90;;;;;;4993340;28;20034;-63
2023/07/11 06:25:57;;;;;;;0.10;0.10;;;19.30;99.90;;;;;;4992635;28;20046;-62
2023/07/11 06:28:23;;;;;;;0.38;0.38;;;19.10;99.90;;;;;;4993310;28;20495;-64
2023/07/11 06:30:49;;;;;;;0.32;0.32;;;19.60;99.90;;;;;;4993401;28;20086;-63
2023/07/11 06:33:17;;;;;;;1.75;0.22;;;19.80;99.90;;;;;;4993779;28;20248;-64
2023/07/11 06:35:48;;;;;;;1.67;0.65;;;19.70;99.90;;;;;;4993736;28;20054;-63
2023/07/11 06:38:14;;;;;;;0.63;0.60;;;19.90;99.90;;;;;;4993508;28;20042;-64
2023/07/11 06:40:40;;;;;;;0.30;0.30;;;20.00;99.90;;;;;;4994014;28;20052;-63
2023/07/11 06:43:06;;;;;;;0.52;0.52;;;20.10;99.90;;;;;;4993255;28;20457;-64
2023/07/11 06:45:32;;;;;;;0.35;0.35;;;20.50;99.90;;;;;;4994189;28;20046;-63
2023/07/11 06:47:57;;;;;;;0.13;0.13;;;20.60;99.90;;;;;;4993620;28;20558;-67
2023/07/11 06:50:23;;;;;;;0.95;0.70;;;20.10;99.90;;;;;;4993465;28;20055;-63
2023/07/11 06:52:49;;;;;;;0.55;0.50;;;20.60;99.90;;;;;;4993766;28;20042;-65
2023/07/11 06:55:14;;;;;;;0.32;0.25;;;20.60;99.90;;;;;;4992698;28;20477;-64
2023/07/11 06:57:40;;;;;;;0.25;0.25;;;20.80;99.90;;;;;;4993152;28;20057;-66
2023/07/11 07:00:07;;;;;;;0.52;0.50;;;20.50;99.90;;;;;;4993004;28;20425;-68
2023/07/11 07:02:32;;;;;;;1.67;0.28;;;20.50;99.90;;;;;;4992321;28;20490;-65
2023/07/11 07:04:58;;;;;;;0.30;0.30;;;21.40;99.90;;;;;;4993024;28;20050;-66
2023/07/11 07:07:24;;;;;;;0.25;0.25;;;21.10;99.90;;;;;;4993005;28;20050;-68
2023/07/11 07:09:50;;;;;;;0.30;0.30;;;21.50;99.90;;;;;;4993017;28;20043;-65
2023/07/11 07:12:16;;;;;;;1.13;1.00;;;21.30;99.90;;;;;;4992822;28;20050;-66
2023/07/11 07:14:42;;;;;;;0.52;0.52;;;21.50;99.90;;;;;;4992404;28;20466;-65
2023/07/11 07:17:08;;;;;;;0.47;0.47;;;21.50;99.90;;;;;;4993554;28;20050;-65
2023/07/11 07:19:33;;;;;;;3.75;1.88;;;22.00;99.90;;;;;;4992780;28;20042;-64
2023/07/11 07:21:59;;;;;;;1.27;1.05;;;22.10;99.90;;;;;;4992842;28;20113;-62
2023/07/11 07:24:25;;;;;;;1.08;0.98;;;22.00;99.90;;;;;;4991496;28;20454;-64
2023/07/11 07:26:50;;;;;;;0.60;0.60;;;22.30;99.90;;;;;;4993759;28;20054;-63
2023/07/11 07:29:16;;;;;;;0.40;0.40;;;21.90;99.90;;;;;;4996091;28;20133;-67
2023/07/11 07:31:42;;;;;;;1.15;1.15;;;21.60;99.90;;;;;;4996199;28;20043;-64
2023/07/11 07:34:08;;;;;;;0.38;0.38;;;22.10;99.90;;;;;;4996677;28;20494;-65
2023/07/11 07:36:34;;;;;;;0.65;0.65;;;21.90;99.90;;;;;;4996117;28;20542;-64
2023/07/11 07:38:59;;;;;;;0.30;0.30;;;22.20;99.90;;;;;;4995714;28;20108;-66
2023/07/11 07:41:26;;;;;;;0.65;0.65;;;21.80;99.90;;;;;;4994723;28;20133;-67
2023/07/11 07:43:51;;;;;;;0.40;0.30;;;22.10;99.90;;;;;;4994950;28;20053;-68
2023/07/11 07:46:19;;;;;;;0.32;0.32;;;22.20;99.90;;;;;;4995974;28;20434;-64
2023/07/11 07:48:45;;;;;;;0.30;0.30;;;21.90;99.90;;;;;;4995862;28;20112;-64
2023/07/11 07:51:17;;;;;;;0.25;0.20;;;22.10;99.90;;;;;;4995810;28;20541;-64
2023/07/11 07:53:43;;;;;;;0.30;0.30;;;22.30;99.90;;;;;;4995893;28;20045;-63
2023/07/11 07:56:19;;;;;;;0.45;0.40;;;22.70;99.90;;;;;;4995577;28;20093;-72
2023/07/11 07:58:45;;;;;;;5.90;0.65;;;22.40;99.90;;;;;;4996157;28;20133;-67
2023/07/11 08:01:12;;;;;;;0.10;0.10;;;22.40;99.90;;;;;;4995648;28;20049;-68
2023/07/11 08:03:39;;;;;;;1.13;0.57;;;22.30;99.90;;;;;;4995509;28;20039;-64
2023/07/11 08:06:05;;;;;;;0.82;0.60;;;22.50;99.90;;;;;;4994504;28;20046;-65
2023/07/11 08:08:31;;;;;;;1.17;0.82;;;22.20;99.90;;;;;;4996037;28;20050;-65
2023/07/11 08:11:01;;;;;;;3.50;1.55;;;22.90;99.90;;;;;;4995617;28;20053;-66
2023/07/11 08:13:27;;;;;;;0.28;0.28;;;23.00;99.90;;;;;;4996196;28;20049;-65
2023/07/11 08:15:53;;;;;;;0.32;0.32;;;22.70;99.90;;;;;;4995357;28;20046;-64
2023/07/11 08:18:19;;;;;;;1.20;0.95;;;23.30;99.90;;;;;;4994620;28;20125;-69
2023/07/11 08:20:45;;;;;;;1.55;0.98;;;23.10;99.90;;;;;;4995233;28;20054;-67
2023/07/11 08:23:10;;;;;;;0.10;0.10;;;23.00;99.90;;;;;;4993941;28;20047;-64
2023/07/11 08:25:36;;;;;;;0.20;0.20;;;23.40;99.90;;;;;;4995339;28;20046;-67
2023/07/11 08:28:04;;;;;;;0.50;0.50;;;23.30;99.90;;;;;;4978624;28;20180;-71
2023/07/11 08:30:34;;;;;;;0.40;0.28;;;23.40;99.90;;;;;;4995597;28;20043;-67
2023/07/11 08:33:00;;;;;;;0.47;0.40;;;23.90;99.90;;;;;;4995507;28;20038;-66
2023/07/11 08:35:26;;;;;;;0.30;0.30;;;24.20;99.90;;;;;;4978031;28;20068;-67
2023/07/11 08:37:51;;;;;;;0.30;0.30;;;24.40;99.90;;;;;;4995069;28;20054;-62
2023/07/11 08:40:21;;;;;;;0.50;0.50;;;24.50;99.90;;;;;;4996021;28;20125;-62
2023/07/11 08:42:47;;;;;;;3.42;0.55;;;24.70;99.90;;;;;;4995421;28;20049;-63
2023/07/11 08:45:18;;;;;;;0.73;0.73;;;24.70;99.90;;;;;;4994760;28;20050;-64
2023/07/11 08:47:55;;;;;;;0.20;0.20;;;24.40;99.90;;;;;;4994946;28;20082;-63
2023/07/11 08:50:26;;;;;;;0.30;0.30;;;24.60;99.90;;;;;;4994495;28;20144;-63
2023/07/11 08:53:03;;;;;;;3.35;0.25;;;24.30;99.90;;;;;;4995372;28;20038;-64
2023/07/11 08:55:32;;;;;;;1.05;0.43;;;24.70;99.90;;;;;;4995166;28;20061;-64
2023/07/11 08:58:19;;;;;;;0.90;0.85;;;24.40;99.90;;;;;;4995115;28;20398;-66
2023/07/11 09:00:48;;;;;;;0.55;0.43;;;25.00;99.90;;;;;;4995255;28;20042;-66
2023/07/11 09:03:27;;;;;;;0.20;0.20;;;25.00;99.90;;;;;;4994465;28;20140;-66
2023/07/11 09:06:11;;;;;;;0.30;0.30;;;25.30;99.90;;;;;;4994534;28;20061;-66
2023/07/11 09:08:41;;;;;;;0.40;0.28;;;25.40;99.90;;;;;;4994480;28;20133;-62
2023/07/11 09:11:24;;;;;;;0.10;0.10;;;25.70;99.90;;;;;;4994709;28;20043;-65
2023/07/11 09:14:05;;;;;;;0.15;0.15;;;25.80;99.90;;;;;;4994945;28;20043;-66
2023/07/11 09:17:01;;;;;;;0.10;0.10;;;26.00;99.90;;;;;;4994627;28;20053;-63
2023/07/11 09:19:39;;;;;;;3.00;0.95;;;25.70;99.90;;;;;;4994264;28;20065;-65
2023/07/11 09:22:30;;;;;;;0.20;0.20;;;26.20;99.90;;;;;;4994636;28;20481;-66
2023/07/11 09:25:17;;;;;;;1.63;0.22;;;26.00;99.90;;;;;;4993997;28;20097;-66
2023/07/11 09:27:59;;;;;;;0.20;0.20;;;26.20;99.90;;;;;;4994420;28;20348;-64
2023/07/11 09:30:42;;;;;;;0.80;0.75;;;26.20;99.90;;;;;;4994654;28;20065;-63
2023/07/11 09:33:22;;;;;;;0.20;0.20;;;26.00;99.90;;;;;;4992869;28;20046;-62
2023/07/11 09:35:47;;;;;;;0.63;0.35;;;26.30;99.90;;;;;;4993876;28;20457;-64
2023/07/11 09:38:17;;;;;;;0.38;0.28;;;26.00;99.90;;;;;;4994159;28;20046;-64
2023/07/11 09:40:49;;;;;;;1.05;0.47;;;26.30;99.90;;;;;;4993815;28;20054;-63
2023/07/11 09:43:15;;;;;;;0.32;0.32;;;26.50;99.90;;;;;;4994260;28;20096;-63
2023/07/11 09:45:43;;;;;;;0.28;0.28;;;26.50;99.90;;;;;;4993825;28;20133;-63
2023/07/11 09:48:15;;;;;;;0.10;0.10;;;26.70;99.90;;;;;;4994379;28;20046;-63
2023/07/11 09:50:52;;;;;;;0.75;0.63;;;26.80;99.90;;;;;;4993398;28;20055;-62
2023/07/11 09:53:20;;;;;;;0.43;0.43;;;26.40;99.90;;;;;;4993727;28;20057;-63
2023/07/11 09:55:52;;;;;;;0.30;0.25;;;26.90;99.90;;;;;;4993693;28;20046;-62
2023/07/11 09:58:18;;;;;;;0.30;0.30;;;28.50;99.90;;;;;;4992535;28;20458;-64
2023/07/11 10:00:58;;;;;;;0.20;0.20;;;26.70;99.90;;;;;;4993678;28;20046;-62
2023/07/11 10:03:26;;;;;;;0.35;0.28;;;26.50;99.90;;;;;;4993690;28;20046;-63
2023/07/11 10:05:53;;;;;;;0.40;0.40;;;26.70;99.90;;;;;;4992832;28;20065;-65
2023/07/11 10:08:27;;;;;;;1.02;0.82;;;26.50;99.90;;;;;;4993612;28;20116;-67
2023/07/11 10:10:55;;;;;;;0.38;0.38;;;26.20;99.90;;;;;;4993577;28;20132;-62
2023/07/11 10:13:22;;;;;;;0.47;0.38;;;26.30;99.90;;;;;;4994300;28;20402;-66
2023/07/11 10:15:53;;;;;;;1.75;1.00;;;26.20;99.90;;;;;;4993526;28;20085;-65
2023/07/11 10:18:24;;;;;;;0.32;0.32;;;26.20;99.90;;;;;;4993591;28;20052;-65
2023/07/11 10:20:59;;;;;;;0.28;0.28;;;26.40;99.90;;;;;;4993849;28;20501;-67
2023/07/11 10:23:26;;;;;;;0.40;0.40;;;26.60;99.90;;;;;;4993475;28;20038;-66
2023/07/11 10:26:02;;;;;;;0.40;0.40;;;26.70;99.90;;;;;;4993992;28;20085;-63
2023/07/11 10:28:33;;;;;;;0.22;0.22;;;26.90;99.90;;;;;;4993322;28;20050;-63
2023/07/11 10:31:17;;;;;;;0.20;0.20;;;26.80;99.90;;;;;;4993984;28;20072;-65
2023/07/11 10:34:19;;;;;;;0.98;0.32;;;26.90;99.90;;;;;;4993209;28;20502;-63
2023/07/11 10:36:49;;;;;;;0.40;0.40;;;26.50;99.90;;;;;;4992621;28;20043;-63
2023/07/11 10:39:32;;;;;;;0.60;0.52;;;26.80;99.90;;;;;;4993537;28;20054;-63
2023/07/11 10:42:06;;;;;;;0.10;0.10;;;26.50;99.90;;;;;;4992926;28;20060;-63
2023/07/11 10:44:42;;;;;;;0.10;0.10;;;26.10;99.90;;;;;;4993272;28;20116;-64
2023/07/11 10:47:09;;;;;;;1.88;1.00;;;26.20;99.90;;;;;;4993970;28;20054;-63
2023/07/11 10:49:45;;;;;;;0.20;0.20;;;26.20;99.90;;;;;;4993223;28;20042;-62
2023/07/11 10:52:26;;;;;;;0.63;0.63;;;25.90;99.90;;;;;;4993296;28;20043;-64
2023/07/11 10:55:16;;;;;;;0.25;0.25;;;25.90;99.90;;;;;;4993571;28;20050;-68
2023/07/11 10:57:50;;;;;;;0.73;0.20;;;26.00;99.90;;;;;;4993446;28;20046;-64
2023/07/11 11:00:19;;;;;;;0.50;0.50;;;25.90;99.90;;;;;;4993703;28;20050;-66
2023/07/11 11:02:50;;;;;;;0.03;0.03;;;25.80;99.90;;;;;;4995806;28;20548;-64
2023/07/11 11:05:52;;;;;;;0.22;0.22;;;25.90;99.90;;;;;;4996795;28;20062;-68
2023/07/11 11:08:32;;;;;;;0.35;0.35;;;25.90;99.90;;;;;;4997551;28;20073;-66
2023/07/11 11:11:09;;;;;;;0.60;0.45;;;25.80;99.90;;;;;;4997112;28;20046;-67
2023/07/11 11:13:37;;;;;;;0.17;0.17;;;26.00;99.90;;;;;;4996126;28;20348;-65
2023/07/11 11:16:22;;;;;;;0.40;0.40;;;26.20;99.90;;;;;;4996462;28;20490;-63
2023/07/11 11:19:06;;;;;;;1.33;1.00;;;26.70;99.90;;;;;;4997088;28;20057;-64
2023/07/11 11:22:03;;;;;;;0.35;0.35;;;26.20;99.90;;;;;;4996888;28;20086;-63
2023/07/11 11:25:04;;;;;;;0.55;0.55;;;26.10;99.90;;;;;;4982090;28;20077;-63
2023/07/11 11:27:38;;;;;;;0.43;0.43;;;24.00;99.90;;;;;;4982691;28;20112;-64
2023/07/11 11:30:16;;;;;;;0.30;0.30;;;26.40;99.90;;;;;;4996507;28;20046;-64
2023/07/11 11:33:10;;;;;;;0.80;0.75;;;26.10;99.90;;;;;;4997135;28;20057;-62
2023/07/11 11:35:51;;;;;;;1.73;1.40;;;26.30;99.90;;;;;;4995967;28;20124;-63
2023/07/11 11:38:31;;;;;;;1.17;0.50;;;26.30;99.90;;;;;;4996466;28;20050;-62
2023/07/11 11:41:04;;;;;;;0.43;0.43;;;26.00;99.90;;;;;;4996273;28;20133;-64
2023/07/11 11:43:30;;;;;;;0.17;0.17;;;25.70;99.90;;;;;;4996089;28;20038;-64
2023/07/11 11:46:00;;;;;;;0.40;0.40;;;26.00;99.90;;;;;;4996130;28;20100;-64
2023/07/11 11:48:29;;;;;;;3.80;1.20;;;26.20;99.90;;;;;;4996349;28;20390;-63
2023/07/11 11:50:56;;;;;;;0.17;0.17;;;26.60;99.90;;;;;;4996169;28;20057;-64
2023/07/11 11:53:34;;;;;;;0.63;0.63;;;26.50;99.90;;;;;;4994900;28;20165;-64
2023/07/11 11:56:05;;;;;;;0.70;0.70;;;26.60;99.90;;;;;;4996566;28;20046;-63
2023/07/11 11:58:34;;;;;;;0.57;0.55;;;26.60;99.90;;;;;;4996122;28;20375;-64
2023/07/11 12:01:01;;;;;;;0.20;0.20;;;26.80;99.90;;;;;;4995850;28;20054;-62
2023/07/11 12:03:43;;;;;;;0.40;0.40;;;27.00;99.90;;;;;;4995914;28;20039;-64
2023/07/11 12:06:29;;;;;;;0.47;0.47;;;27.40;99.90;;;;;;4995877;28;20058;-66
2023/07/11 12:09:16;;;;;;;0.20;0.20;;;26.80;99.90;;;;;;4996524;28;20057;-64
2023/07/11 12:12:03;;;;;;;1.30;0.45;;;26.50;99.90;;;;;;4996352;28;20054;-64
2023/07/11 12:14:36;;;;;;;1.02;0.98;;;26.50;99.90;;;;;;4996552;28;20073;-63
2023/07/11 12:17:02;;;;;;;0.30;0.30;;;26.20;99.90;;;;;;4994669;28;20485;-64
2023/07/11 12:19:30;;;;;;;0.30;0.30;;;26.50;99.90;;;;;;4995553;28;20562;-67
2023/07/11 12:22:05;;;;;;;0.25;0.25;;;26.80;99.90;;;;;;4995417;28;20061;-64
2023/07/11 12:24:33;;;;;;;0.73;0.73;;;26.90;99.90;;;;;;4996325;28;20042;-65
2023/07/11 12:27:18;;;;;;;0.40;0.40;;;26.90;99.90;;;;;;4995024;28;20085;-65
2023/07/11 12:29:46;;;;;;;0.22;0.20;;;26.40;99.90;;;;;;4995556;28;20120;-66
2023/07/11 12:32:30;;;;;;;0.28;0.28;;;26.50;99.90;;;;;;4994869;28;20054;-64
2023/07/11 12:35:05;;;;;;;0.20;0.10;;;26.20;99.90;;;;;;4994900;28;20049;-65
2023/07/11 12:37:39;;;;;;;1.55;0.28;;;26.40;99.90;;;;;;4995340;28;20482;-65
2023/07/11 12:40:11;;;;;;;0.20;0.20;;;26.40;99.90;;;;;;4994850;28;20063;-64
2023/07/11 12:42:48;;;;;;;0.30;0.30;;;26.90;99.90;;;;;;4994774;28;20462;-64
2023/07/11 12:45:17;;;;;;;0.10;0.10;;;27.00;99.90;;;;;;4995038;28;20124;-65
2023/07/11 12:47:45;;;;;;;0.28;0.20;;;27.30;99.90;;;;;;4994782;28;20124;-65
2023/07/11 12:50:53;;;;;;;0.80;0.60;;;26.70;99.90;;;;;;4994737;28;20129;-63
2023/07/11 12:53:20;;;;;;;0.10;0.10;;;26.60;99.90;;;;;;4994602;28;20042;-67
2023/07/11 12:55:48;;;;;;;1.10;0.45;;;26.70;99.90;;;;;;4994578;28;20054;-64
2023/07/11 12:58:24;;;;;;;0.08;0.08;;;26.40;99.90;;;;;;4994125;28;20046;-65
2023/07/11 13:00:52;;;;;;;0.32;0.20;;;26.40;99.90;;;;;;4994420;28;20056;-65
2023/07/11 13:03:27;;;;;;;0.45;0.43;;;26.90;99.90;;;;;;4994188;28;20039;-64